Logo AVAMET
Benvolgut visitant, si us plau, ingressa Recuperar contrasenya
AVAMET paisatges

Inforatge Xeraco centre

Dades diàries. Acumulats / Últims 30 dies disponibles

Data Temperatura (°C) Humitat rel. (%) Pressió rel. (hPa) Vent (km/h) Precipitació
Mínima Mitjana Màxima Amplitud
tèrmica
Mínima Mitjana Màxima Mínima Mitjana Màxima Predom. Mitjana Ràfega
màxima
Total
(mm)
Índex-n
Mínima Mitjana Màxima Mínima Mitjana Màxima n
0 a 1
P0 max
mm 5'
Dades mensuals acumulades fins l'últim dia disponible
08/2020 23,3 24,1 24,9 27,8 28,9 32,4 39,1 15,8 43 77 93 1.012 1.015 1.020   4,7 37,0 38,4
Dades anuals acumulades fins l'últim dia disponible
2020 3,8 15,5 25,6 19,1 11,8 23,2 39,1 35,3 19 73 99 1.001 1.019 1.036   6,0 91,7 465,4
Últims 30 dies disponibles
07-08-2020 23,3     27,9     33,6 10,3 51 68 82 1.016 1.019 1.020 ENE 3,5 19,3 0,0
06-08-2020 24,2     27,6     30,6 6,4 58 73 88 1.015 1.017 1.018 ESE 5,5 30,6 0,0
05-08-2020 24,1     27,5     31,1 7,0 64 77 88 1.012 1.014 1.015 ESE 4,7 27,4 0,0
04-08-2020 23,9     27,0     32,4 8,5 57 81 93 1.012 1.014 1.016 ENE 5,3 37,0 15,0 0,62 10,30
03-08-2020 23,8     26,8     28,9 5,1 70 83 93 1.012 1.013 1.015 ENE 4,2 29,0 23,4 0,56 8,60
02-08-2020 24,9     28,2     30,8 5,9 69 80 89 1.013 1.015 1.017 ENE 5,3 29,0 0,0
01-08-2020 24,7     29,7     39,1 14,4 43 79 91 1.012 1.014 1.016 ENE 4,7 32,2 0,0
31-07-2020 23,9     28,6     32,7 8,8 54 69 89 1.014 1.016 1.017 SSE 4,0 20,9 0,0
30-07-2020 24,3     27,4     30,4 6,1 63 79 87 1.015 1.017 1.018 ENE 3,9 25,7 0,0
29-07-2020 25,6     27,6     30,4 4,8 75 83 88 1.015 1.016 1.018 ENE 6,6 32,2 0,0
28-07-2020 24,1     27,8     31,7 7,6 61 74 84 1.015 1.015 1.016 ENE 4,0 25,7 0,0
27-07-2020 23,8     28,0     31,9 8,1 47 73 89 1.015 1.017 1.019 W 4,5 24,1 0,0
26-07-2020 24,3     27,3     30,2 5,9 66 78 86 1.014 1.016 1.018 ENE 5,1 25,7 0,0
25-07-2020 24,8     27,5     30,9 6,1 50 74 84 1.014 1.015 1.017 ENE 5,6 24,1 0,0
24-07-2020 22,9     27,5     31,7 8,8 50 66 80 1.013 1.014 1.016 ENE 4,5 25,7 0,0
23-07-2020 22,6     27,9     32,6 10,0 39 57 78 1.014 1.016 1.018 W 3,9 22,5 0,0
22-07-2020 24,1     26,6     29,7 5,6 60 78 90 1.018 1.019 1.021 ENE 5,5 33,8 0,2
21-07-2020 23,3     26,2     29,1 5,8 70 80 89 1.018 1.019 1.021 ENE 5,0 25,7 0,0
20-07-2020 24,8     26,6     30,3 5,5 65 79 87 1.016 1.017 1.020 ENE 3,9 25,7 0,0
19-07-2020 23,9     28,2     34,3 10,4 44 70 84 1.013 1.015 1.017 ENE 5,3 30,6 0,0
18-07-2020 22,8     26,7     30,7 7,9 60 75 88 1.014 1.016 1.018 ENE 5,5 33,8 0,0
17-07-2020 22,5     25,8     29,2 6,7 67 76 84 1.015 1.017 1.018 ESE 5,3 33,8 0,0
16-07-2020 21,7     25,7     28,9 7,2 56 70 82 1.017 1.019 1.021 ESE 5,3 30,6 0,0
15-07-2020 20,7     25,1     29,3 8,6 51 73 90 1.016 1.017 1.019 ENE 4,3 24,1 0,0
14-07-2020 20,9     25,1     28,5 7,6 59 78 88 1.014 1.017 1.019 ENE 4,8 37,0 5,0 0,27 0,60
13-07-2020 21,6     26,1     29,7 8,1 57 73 87 1.018 1.019 1.021 ENE 4,3 29,0 0,0
12-07-2020 23,1     25,3     28,9 5,8 66 82 89 1.017 1.019 1.022 ENE 6,4 30,6 0,8
11-07-2020 23,7     25,9     28,8 5,1 66 79 88 1.016 1.018 1.020 ENE 6,4 32,2 0,0
10-07-2020 23,0     26,3     29,7 6,7 67 78 87 1.015 1.016 1.018 ENE 5,1 27,4 0,0
09-07-2020 24,6     26,9     30,6 6,0 53 75 84 1.015 1.017 1.018 ENE 6,1 27,4 0,0
Últims 13 mesos disponibles
07/2020 20,7 23,4 25,6 26,9 27,8 30,8 37,1 16,4 57 75 83 1.012 1.017 1.021 ENE 5,1 40,2 6,0
06/2020 16,4 19,9 23,7 24,0 21,4 28,5 33,4 17,0 42 71 87 1.006 1.015 1.022 ENE 5,6 46,7 63,4
05/2020 12,9 17,3 20,7 21,6 20,6 25,9 32,6 19,7 47 70 83 1.006 1.018 1.028 ENE 4,8 54,7 50,4
04/2020 10,6 13,5 19,4 16,4 14,6 19,8 27,8 17,2 43 78 93 1.007 1.017 1.027 W 5,0 48,3 58,6
03/2020 7,4 11,9 18,3 14,9 11,8 18,4 24,9 17,5 41 72 94 1.008 1.018 1.028 W 8,6 91,7 112,2
02/2020 7,5 11,2 17,2 15,7 14,3 20,5 27,2 19,7 38 69 89 1.015 1.026 1.034 W 5,7 57,9 2,0
01/2020 3,8 8,9 16,8 12,3 12,4 16,1 22,5 18,7 54 75 97 1.016 1.026 1.034 W 7,2 88,5 134,4
12/2019 6,1 12,0 20,2 15,0 14,0 18,5 26,3 20,2 47 69 91 1.003 1.020 1.034 W 10,0 95,0 214,0
11/2019 8,7 13,5 22,7 16,7 15,6 20,4 27,9 19,2 43 55 75 1.000 1.012 1.019 W 12,2 72,4 12,4
10/2019 13,5 17,4 21,4 21,2 17,1 25,0 32,9 19,4 41 66 85 1.009 1.017 1.023 W 5,0 59,5 44,6
09/2019 15,3 21,0 24,3 24,4 23,3 27,6 35,3 20,0 42 74 90 1.011 1.019 1.025 S 6,2 77,8 58,6
08/2019 19,2 23,7 27,3 26,8 24,9 30,4 37,1 17,9 53 74 82 1.011 1.016 1.021 SSE 5,6 55,6 5,2
07/2019 21,3 23,9 26,4 27,0 27,1 30,6 39,2 17,9 43 70 82 1.006 1.015 1.022 SSE 6,3 56,3 0,2
Tots els anys disponibles
2019 4,2 15,6 27,3 19,2 11,6 22,9 39,2 35,0 30 66 94 996 1.018 1.035 SSE 7,2 95,0 597,8
2018 4,6 15,8 27,7 19,0 8,4 22,6 37,1 32,5 35 67 95 994 1.017 1.036 SSE 6,5 76,0 924,6
2017 1,4 16,3 26,9 19,8 9,6 23,3 39,0 37,6 33 68 93 1.002 1.017 1.038 SE 0,0 97,0 399,0
2016 4,8 16,0 25,6 19,4 12,4 22,8 39,6 34,8 29 66 93 993 1.017 1.036 93,0 543,9
Temperatura (°C)
Humitat relativa (%)
Velocitat del vent i ràfega màxima (km/h)
Direcció del vent (°)
Pressió (hPa)
Precipitació (mm)
Nota sobre les dades: s'avisa a l'usuari de la provisionalitat i no oficialitat d'aquestes dades
Logo AVAMET blanc
Web allotjada a Sollutia
Llicència de Creative CommonsLa web d'AVAMET i els seus continguts estan subjectes a una llicència de
Reconeixement - No Comercial - Compartir igual
Últimes estacions: Torremocha del Jiloca (Limítrofe/Soci), Orihuela - Arneva (MeteOrihuela), Enguera - Antolí (Soci), Vilamarxant - La Pedrera (Soci), Càlig (Ajuntament Soci), Quesa - Hotel La Rocha (Soci), Agres - Les Eres (Soci) - - -